KENL/ENL METAR and TAF weather

Enter ICAO airport designator
Station Type Date Time Source
KENL METAR 2021/07/27 21:55 UTC NOAA

KENL 272155Z AUTO 09004KT 10SM CLR 31/23 A3002 RMK AO2 T03100230


Station Type Date Time Source
KENL Decoded METAR 2021/07/27 21:55 UTC NOAA

Centralia, Centralia Municipal Airport, IL, United States (KENL) 38-30-53N 089-05-32W
Jul 27, 2021 - 05:55 PM EDT / 2021.07.27 2155 UTC
Wind: from the E (090 degrees) at 5 MPH (4 KT):0
Visibility: 10 mile(s):0
Sky conditions: clear
Temperature: 87.8 F (31.0 C)
Heat index: 95.7 F (35.4 C):1
Dew Point: 73.4 F (23.0 C)
Relative Humidity: 62%
Pressure (altimeter): 30.02 in. Hg (1016 hPa)
ob: KENL 272155Z AUTO 09004KT 10SM CLR 31/23 A3002 RMK AO2 T03100230
cycle: 22

Station Type Date Time Source
KENL TAF UTC NOAA

Error!

Example: see airport list